createdAt,value
2022-08-26T00:00:20.868Z,57.81
2022-08-26T00:02:48.682Z,58.14
2022-08-26T00:05:16.902Z,58.18
2022-08-26T00:07:45.672Z,58.64
2022-08-26T00:10:13.522Z,58.34
2022-08-26T00:12:42.691Z,58.27
2022-08-26T00:15:13.420Z,58.51
2022-08-26T00:17:43.262Z,58.88
2022-08-26T00:20:14.255Z,58.42
2022-08-26T00:22:42.515Z,58.71
2022-08-26T00:25:12.111Z,58.65
2022-08-26T00:27:40.273Z,58.42
2022-08-26T00:30:12.539Z,58.88
2022-08-26T00:32:43.999Z,59.49
2022-08-26T00:35:15.388Z,60.03
2022-08-26T00:37:44.239Z,59.87
2022-08-26T00:40:17.704Z,59.83
2022-08-26T00:42:46.090Z,59.61
2022-08-26T00:45:15.849Z,59.76
2022-08-26T00:47:48.919Z,60.15
2022-08-26T00:50:20.321Z,60.00
2022-08-26T00:52:51.457Z,59.87
2022-08-26T00:55:25.076Z,59.86
2022-08-26T00:58:03.939Z,59.71
2022-08-26T01:00:33.487Z,59.61
2022-08-26T01:03:05.436Z,59.55
2022-08-26T01:05:35.562Z,59.66
2022-08-26T01:08:04.076Z,60.02
2022-08-26T01:10:32.466Z,59.80
2022-08-26T01:13:04.195Z,59.86
2022-08-26T01:15:35.411Z,59.87
2022-08-26T01:18:07.855Z,60.07
2022-08-26T01:20:42.234Z,59.61
2022-08-26T01:23:12.631Z,60.08
2022-08-26T01:25:45.442Z,59.55
2022-08-26T01:28:17.804Z,59.57
2022-08-26T01:30:48.219Z,59.74
2022-08-26T01:33:20.527Z,60.13
2022-08-26T01:35:48.875Z,60.29
2022-08-26T01:38:18.700Z,60.45
2022-08-26T01:40:47.024Z,60.33
2022-08-26T01:43:19.573Z,60.34
2022-08-26T01:45:50.429Z,60.44
2022-08-26T01:48:24.417Z,60.39
2022-08-26T01:50:53.706Z,60.27
2022-08-26T01:53:25.910Z,60.20
2022-08-26T01:55:57.049Z,60.33
2022-08-26T01:58:29.326Z,60.49
2022-08-26T02:00:58.171Z,60.45
2022-08-26T02:03:26.918Z,60.64
2022-08-26T02:05:58.016Z,60.43
2022-08-26T02:08:32.327Z,60.70
2022-08-26T02:11:00.773Z,61.15
2022-08-26T02:13:33.194Z,61.32
2022-08-26T02:16:03.920Z,61.47
2022-08-26T02:18:36.094Z,61.38
2022-08-26T02:21:06.762Z,61.11
2022-08-26T02:23:36.586Z,61.47
2022-08-26T02:26:10.208Z,61.08
2022-08-26T02:28:43.862Z,60.73
2022-08-26T02:31:12.991Z,61.09
2022-08-26T02:33:43.234Z,61.25
2022-08-26T02:36:13.422Z,61.86
2022-08-26T02:38:43.241Z,61.52
2022-08-26T02:41:11.563Z,61.95
2022-08-26T02:43:39.601Z,61.76
2022-08-26T02:46:07.854Z,61.91
2022-08-26T02:48:36.842Z,61.86
2022-08-26T02:51:04.883Z,62.15
2022-08-26T02:53:35.464Z,62.21
2022-08-26T02:56:06.095Z,62.15
2022-08-26T03:01:04.872Z,62.46
2022-08-26T03:03:33.877Z,62.72
2022-08-26T03:06:02.827Z,62.62
2022-08-26T03:08:30.720Z,62.76
2022-08-26T03:10:59.197Z,62.68
2022-08-26T03:13:30.882Z,62.81
2022-08-26T03:15:58.828Z,62.82
2022-08-26T03:18:26.791Z,62.89
2022-08-26T03:20:54.955Z,62.11
2022-08-26T03:23:23.410Z,62.97
2022-08-26T03:25:53.083Z,63.22
2022-08-26T03:28:21.122Z,62.85
2022-08-26T03:30:49.492Z,62.81
2022-08-26T03:33:17.802Z,63.26
2022-08-26T03:35:47.742Z,63.24
2022-08-26T03:38:19.160Z,62.88
2022-08-26T03:40:47.197Z,63.45
2022-08-26T03:43:17.235Z,63.58
2022-08-26T03:45:46.089Z,63.73
2022-08-26T03:48:16.459Z,63.54
2022-08-26T03:50:44.466Z,63.94
2022-08-26T03:53:13.299Z,64.08
2022-08-26T03:55:42.235Z,63.55
2022-08-26T03:58:12.322Z,64.11
2022-08-26T04:00:40.554Z,64.42
2022-08-26T04:03:13.651Z,63.94
2022-08-26T04:05:46.389Z,64.29
2022-08-26T04:08:14.577Z,64.50
2022-08-26T04:10:43.446Z,64.66
2022-08-26T04:13:12.233Z,64.56
2022-08-26T04:15:40.316Z,64.46
2022-08-26T04:18:08.146Z,63.91
2022-08-26T04:20:35.956Z,64.13
2022-08-26T04:23:05.829Z,63.60
2022-08-26T04:25:33.858Z,62.75
2022-08-26T04:28:04.298Z,64.43
2022-08-26T04:30:32.549Z,64.89
2022-08-26T04:33:00.815Z,65.62
2022-08-26T04:35:29.235Z,66.58
2022-08-26T04:37:58.828Z,66.99
2022-08-26T04:40:28.457Z,67.27
2022-08-26T04:42:56.757Z,67.22
2022-08-26T04:45:25.964Z,67.10
2022-08-26T04:47:56.243Z,66.62
2022-08-26T04:50:26.579Z,66.38
2022-08-26T04:52:55.251Z,66.62
2022-08-26T04:55:32.195Z,66.40
2022-08-26T04:58:10.405Z,65.92
2022-08-26T05:00:39.556Z,65.63
2022-08-26T05:03:10.600Z,65.80
2022-08-26T05:05:41.126Z,66.12
2022-08-26T05:08:09.946Z,66.66
2022-08-26T05:10:43.848Z,67.02
2022-08-26T05:13:15.454Z,67.43
2022-08-26T05:15:45.320Z,67.16
2022-08-26T05:18:15.137Z,67.18
2022-08-26T05:20:47.405Z,66.77
2022-08-26T05:23:16.126Z,66.94
2022-08-26T05:25:46.147Z,66.72
2022-08-26T05:28:17.786Z,66.54
2022-08-26T05:30:46.256Z,66.27
2022-08-26T05:33:14.670Z,65.74
2022-08-26T05:35:44.300Z,66.10
2022-08-26T05:38:15.596Z,66.59
2022-08-26T05:40:45.829Z,66.60
2022-08-26T05:43:15.658Z,66.44
2022-08-26T05:45:47.071Z,66.48
2022-08-26T05:48:16.694Z,66.26
2022-08-26T05:50:48.432Z,66.22
2022-08-26T05:53:18.114Z,66.34
2022-08-26T05:55:48.529Z,65.98
2022-08-26T05:58:20.979Z,66.88
2022-08-26T06:00:57.941Z,66.60
2022-08-26T06:03:25.981Z,66.31
2022-08-26T06:05:54.035Z,66.28
2022-08-26T06:08:22.533Z,66.17
2022-08-26T06:10:54.071Z,66.03
2022-08-26T06:13:25.729Z,65.48
2022-08-26T06:15:55.570Z,65.79
2022-08-26T06:18:27.399Z,65.39
2022-08-26T06:20:58.377Z,65.65
2022-08-26T06:23:45.943Z,65.20
2022-08-26T06:26:15.611Z,65.13
2022-08-26T06:28:45.911Z,65.07
2022-08-26T06:31:15.376Z,64.70
2022-08-26T06:33:44.403Z,64.55
2022-08-26T06:36:18.595Z,63.75
2022-08-26T06:38:48.100Z,63.74
2022-08-26T06:41:17.983Z,62.99
2022-08-26T06:43:47.299Z,62.68
2022-08-26T06:46:18.881Z,62.67
2022-08-26T06:48:47.650Z,62.77
2022-08-26T06:51:19.689Z,62.69
2022-08-26T06:53:53.214Z,62.83
2022-08-26T06:56:23.561Z,62.31
2022-08-26T06:58:54.953Z,62.29
2022-08-26T07:01:27.638Z,60.80
2022-08-26T07:03:59.547Z,60.15
2022-08-26T07:06:29.803Z,59.93
2022-08-26T07:09:04.049Z,59.70
2022-08-26T07:11:33.854Z,60.14
2022-08-26T07:14:04.361Z,60.80
2022-08-26T07:16:32.884Z,60.90
2022-08-26T07:19:03.445Z,60.83
2022-08-26T07:21:40.389Z,60.49
2022-08-26T07:24:09.039Z,60.47
2022-08-26T07:26:42.986Z,60.25
2022-08-26T07:29:12.783Z,59.49
2022-08-26T07:31:42.423Z,59.92
2022-08-26T07:34:13.588Z,59.80
2022-08-26T07:36:41.994Z,59.74
2022-08-26T07:39:10.214Z,59.08
2022-08-26T07:41:38.301Z,59.52
2022-08-26T07:44:08.675Z,59.12
2022-08-26T07:46:39.963Z,59.23
2022-08-26T07:49:09.001Z,57.87
2022-08-26T07:51:37.627Z,57.37
2022-08-26T07:54:06.972Z,57.86
2022-08-26T07:56:35.289Z,57.71
2022-08-26T07:59:14.030Z,57.41
2022-08-26T08:01:45.437Z,57.94
2022-08-26T08:04:14.444Z,58.46
2022-08-26T08:06:43.856Z,58.47
2022-08-26T08:09:12.820Z,58.62
2022-08-26T08:11:41.400Z,57.37
2022-08-26T08:14:11.716Z,57.03
2022-08-26T08:16:45.904Z,55.83
2022-08-26T08:19:16.750Z,55.54
2022-08-26T08:21:45.106Z,55.24
2022-08-26T08:24:13.132Z,54.41
2022-08-26T08:26:41.440Z,54.78
2022-08-26T08:29:09.855Z,55.07
2022-08-26T08:31:58.071Z,55.82
2022-08-26T08:34:29.476Z,55.30
2022-08-26T08:36:58.110Z,54.54
2022-08-26T08:39:27.281Z,54.02
2022-08-26T08:42:29.476Z,53.97
2022-08-26T08:45:00.604Z,53.64
2022-08-26T08:47:35.178Z,54.23
2022-08-26T08:50:18.533Z,54.65
2022-08-26T08:52:53.420Z,53.91
2022-08-26T08:55:22.434Z,53.96
2022-08-26T08:58:03.030Z,54.20
2022-08-26T09:00:44.215Z,53.88
2022-08-26T09:03:24.597Z,53.65
2022-08-26T09:05:55.464Z,53.09
2022-08-26T09:08:28.300Z,52.05
2022-08-26T09:10:59.353Z,51.18
2022-08-26T09:13:29.153Z,52.27
2022-08-26T09:16:08.445Z,52.52
2022-08-26T09:18:54.893Z,52.67
2022-08-26T09:21:26.223Z,51.22
2022-08-26T09:23:57.440Z,52.06
2022-08-26T09:26:30.594Z,52.14
2022-08-26T09:29:00.907Z,51.72
2022-08-26T09:31:30.804Z,51.48
2022-08-26T09:34:12.999Z,50.56
2022-08-26T09:36:49.720Z,51.25
2022-08-26T09:39:30.549Z,51.21
2022-08-26T09:42:09.574Z,50.45
2022-08-26T09:44:54.709Z,51.64
2022-08-26T09:47:29.720Z,53.18
2022-08-26T09:50:00.996Z,52.26
2022-08-26T09:52:31.657Z,52.19
2022-08-26T09:55:03.915Z,51.62
2022-08-26T09:57:34.628Z,50.80
2022-08-26T10:00:03.296Z,49.52
2022-08-26T10:02:47.865Z,49.16
2022-08-26T10:05:28.738Z,47.14
2022-08-26T10:08:00.098Z,47.43
2022-08-26T10:10:33.533Z,45.54
2022-08-26T10:13:10.651Z,45.36
2022-08-26T10:15:50.662Z,44.86
2022-08-26T10:18:23.667Z,44.35
2022-08-26T10:20:57.797Z,42.93
2022-08-26T10:23:30.311Z,42.88
2022-08-26T10:26:03.108Z,43.35
2022-08-26T10:28:40.395Z,42.90
2022-08-26T10:31:19.967Z,43.06
2022-08-26T10:33:52.549Z,43.34
2022-08-26T10:37:14.724Z,44.16
2022-08-26T10:39:38.155Z,45.42
2022-08-26T10:42:10.927Z,46.28
2022-08-26T10:44:43.792Z,46.12
2022-08-26T10:47:18.564Z,45.39
2022-08-26T10:49:50.334Z,45.07
2022-08-26T10:52:22.928Z,43.44
2022-08-26T10:55:06.382Z,43.67
2022-08-26T10:57:44.841Z,44.20
2022-08-26T11:00:38.528Z,44.73
2022-08-26T11:03:22.574Z,45.75
2022-08-26T11:06:24.875Z,47.14
2022-08-26T11:08:54.850Z,47.05
2022-08-26T11:11:48.558Z,48.49
2022-08-26T11:14:44.633Z,48.76
2022-08-26T11:17:57.068Z,49.16
2022-08-26T11:20:41.540Z,49.56
2022-08-26T11:23:40.466Z,48.83
2022-08-26T11:26:36.236Z,46.76
2022-08-26T11:29:12.352Z,43.92
2022-08-26T11:31:56.923Z,42.49
2022-08-26T11:34:56.345Z,41.43
2022-08-26T11:37:32.200Z,41.50
2022-08-26T11:40:03.034Z,40.13
2022-08-26T11:42:38.035Z,38.27
2022-08-26T11:45:19.294Z,38.72
2022-08-26T11:47:49.437Z,37.80
2022-08-26T11:50:20.769Z,35.73
2022-08-26T11:53:01.910Z,35.31
2022-08-26T11:55:34.221Z,34.70
2022-08-26T11:58:05.111Z,33.72
2022-08-26T12:00:50.022Z,33.25
2022-08-26T12:03:21.558Z,34.02
2022-08-26T12:05:55.226Z,32.64
2022-08-26T12:08:28.358Z,33.18
2022-08-26T12:11:05.213Z,32.59
2022-08-26T12:13:34.112Z,32.38
2022-08-26T12:16:04.623Z,33.58
2022-08-26T12:18:35.140Z,32.75
2022-08-26T12:21:13.157Z,31.87
2022-08-26T12:23:44.555Z,30.83
2022-08-26T12:26:20.957Z,30.98
2022-08-26T12:28:54.281Z,31.16
2022-08-26T12:31:31.136Z,32.76
2022-08-26T12:34:01.969Z,33.02
2022-08-26T12:36:33.432Z,34.23
2022-08-26T12:39:11.373Z,36.41
2022-08-26T12:41:58.319Z,37.46
2022-08-26T12:44:34.357Z,35.96
2022-08-26T12:47:09.315Z,35.31
2022-08-26T12:49:39.387Z,34.79
2022-08-26T12:52:29.710Z,35.65
2022-08-26T12:55:03.196Z,36.37
2022-08-26T12:57:35.122Z,35.45
2022-08-26T13:00:28.331Z,35.62
2022-08-26T13:02:58.242Z,35.59
2022-08-26T13:05:29.258Z,34.96
2022-08-26T13:08:11.566Z,35.22
2022-08-26T13:10:41.917Z,35.14
2022-08-26T13:13:11.282Z,34.58
2022-08-26T13:15:39.296Z,35.54
2022-08-26T13:18:11.261Z,35.22
2022-08-26T13:20:43.982Z,34.41
2022-08-26T13:23:12.626Z,35.34
2022-08-26T13:25:41.151Z,36.13
2022-08-26T13:28:09.615Z,36.09
2022-08-26T13:30:37.503Z,34.82
2022-08-26T13:33:05.590Z,35.65
2022-08-26T13:35:35.908Z,35.27
2022-08-26T13:38:04.615Z,34.29
2022-08-26T13:40:35.877Z,34.74
2022-08-26T13:43:04.466Z,35.29
2022-08-26T13:45:32.536Z,34.12
2022-08-26T13:48:00.524Z,34.63
2022-08-26T13:50:28.714Z,34.72
2022-08-26T13:52:58.107Z,34.01
2022-08-26T13:55:27.623Z,34.13
2022-08-26T13:57:56.197Z,34.76
2022-08-26T14:00:24.320Z,33.89
2022-08-26T14:02:52.683Z,34.50
2022-08-26T14:05:20.551Z,36.05
2022-08-26T14:07:48.898Z,36.84
2022-08-26T14:10:19.140Z,37.00
2022-08-26T14:12:50.164Z,37.27
2022-08-26T14:15:18.968Z,36.76
2022-08-26T14:17:49.166Z,37.67
2022-08-26T14:20:22.038Z,38.28
2022-08-26T14:23:12.647Z,38.11
2022-08-26T14:25:39.323Z,38.10
2022-08-26T14:28:07.765Z,38.31
2022-08-26T14:30:36.154Z,37.38
2022-08-26T14:33:04.653Z,38.03
2022-08-26T14:35:33.383Z,37.54
2022-08-26T14:38:01.370Z,38.05
2022-08-26T14:40:33.883Z,36.98
2022-08-26T14:43:07.537Z,36.50
2022-08-26T14:48:13.706Z,38.02
2022-08-26T14:50:42.626Z,38.26
2022-08-26T14:53:27.794Z,40.41
2022-08-26T14:55:55.763Z,41.04
2022-08-26T14:58:25.043Z,42.19
2022-08-26T15:00:56.750Z,42.30
2022-08-26T15:03:24.755Z,43.52
2022-08-26T15:05:53.609Z,43.41
2022-08-26T15:08:21.759Z,43.32
2022-08-26T15:10:49.767Z,43.08
2022-08-26T15:13:18.242Z,44.05
2022-08-26T15:15:47.621Z,44.95
2022-08-26T15:18:15.543Z,44.78
2022-08-26T15:20:43.438Z,45.25
2022-08-26T15:23:12.019Z,45.88
2022-08-26T15:25:43.617Z,46.62
2022-08-26T15:28:11.887Z,46.90
2022-08-26T15:30:40.093Z,47.52
2022-08-26T15:33:10.924Z,47.93
2022-08-26T15:35:43.590Z,48.84
2022-08-26T15:38:12.545Z,49.16
2022-08-26T15:40:40.624Z,49.52
2022-08-26T15:43:25.773Z,50.57
2022-08-26T15:45:56.926Z,52.11
2022-08-26T15:48:27.100Z,52.82
2022-08-26T15:50:57.661Z,53.46
2022-08-26T15:53:26.136Z,54.71
2022-08-26T15:55:56.344Z,55.97
2022-08-26T15:58:26.418Z,55.67
2022-08-26T16:00:56.227Z,56.07
2022-08-26T16:03:26.219Z,55.53
2022-08-26T16:05:54.082Z,54.19
2022-08-26T16:08:22.324Z,55.14
2022-08-26T16:10:51.277Z,55.54
2022-08-26T16:13:20.162Z,54.45
2022-08-26T16:15:48.582Z,55.60
2022-08-26T16:18:17.817Z,55.96
2022-08-26T16:21:10.279Z,54.99
2022-08-26T16:23:40.411Z,54.81
2022-08-26T16:26:12.362Z,55.05
2022-08-26T16:28:40.492Z,55.68
2022-08-26T16:31:09.547Z,54.60
2022-08-26T16:33:39.232Z,54.82
2022-08-26T16:36:09.986Z,56.26
2022-08-26T16:38:39.678Z,55.97
2022-08-26T16:41:08.714Z,55.34
2022-08-26T16:43:37.010Z,54.95
2022-08-26T16:46:07.322Z,54.85
2022-08-26T16:48:35.442Z,55.83
2022-08-26T16:51:03.748Z,55.58
2022-08-26T16:53:33.571Z,56.60
2022-08-26T16:56:01.590Z,56.85
2022-08-26T16:58:31.286Z,56.42
2022-08-26T17:01:02.291Z,56.75
2022-08-26T17:03:30.545Z,57.27
2022-08-26T17:05:58.417Z,57.85
2022-08-26T17:08:28.724Z,57.45
2022-08-26T17:11:00.431Z,57.34
2022-08-26T17:13:35.694Z,57.87
2022-08-26T17:16:05.355Z,56.89
2022-08-26T17:18:34.633Z,58.13
2022-08-26T17:21:04.416Z,58.20
2022-08-26T17:23:33.029Z,58.69
2022-08-26T17:26:02.546Z,58.49
2022-08-26T17:28:30.929Z,58.64
2022-08-26T17:30:59.487Z,59.68
2022-08-26T17:33:28.178Z,57.90
2022-08-26T17:35:56.734Z,58.54
2022-08-26T17:38:25.337Z,59.77
2022-08-26T17:40:53.713Z,60.78
2022-08-26T17:43:23.263Z,60.68
2022-08-26T17:45:51.402Z,59.31
2022-08-26T17:48:19.480Z,58.29
2022-08-26T17:50:49.659Z,59.18
2022-08-26T17:53:19.207Z,59.34
2022-08-26T17:55:47.583Z,59.44
2022-08-26T17:58:17.171Z,59.53
2022-08-26T18:00:47.813Z,60.80
2022-08-26T18:03:16.243Z,60.54
2022-08-26T18:05:50.690Z,60.32
2022-08-26T18:08:22.055Z,61.09
2022-08-26T18:10:51.017Z,61.34
2022-08-26T18:13:19.636Z,61.47
2022-08-26T18:15:48.904Z,61.27
2022-08-26T18:18:16.886Z,60.88
2022-08-26T18:20:46.867Z,59.32
2022-08-26T18:23:20.454Z,60.57
2022-08-26T18:25:48.361Z,61.45
2022-08-26T18:28:16.644Z,60.86
2022-08-26T18:30:46.275Z,60.79
2022-08-26T18:33:15.810Z,61.51
2022-08-26T18:35:45.781Z,62.56
2022-08-26T18:38:15.373Z,61.60
2022-08-26T18:40:46.454Z,62.17
2022-08-26T18:43:14.832Z,62.41
2022-08-26T18:45:42.856Z,63.93
2022-08-26T18:48:11.338Z,63.94
2022-08-26T18:50:43.849Z,63.62
2022-08-26T18:53:15.615Z,63.68
2022-08-26T18:55:43.498Z,62.99
2022-08-26T18:58:11.884Z,63.85
2022-08-26T19:00:40.353Z,63.67
2022-08-26T19:03:08.341Z,63.49
2022-08-26T19:05:48.301Z,63.54
2022-08-26T19:08:16.097Z,64.56
2022-08-26T19:10:43.998Z,65.04
2022-08-26T19:13:11.933Z,65.12
2022-08-26T19:15:41.074Z,65.19
2022-08-26T19:18:10.147Z,65.04
2022-08-26T19:20:41.531Z,65.43
2022-08-26T19:23:30.906Z,64.96
2022-08-26T19:25:59.634Z,65.32
2022-08-26T19:28:27.807Z,65.30
2022-08-26T19:30:56.828Z,65.95
2022-08-26T19:33:25.890Z,65.00
2022-08-26T19:35:54.346Z,65.71
2022-08-26T19:38:24.236Z,66.11
2022-08-26T19:40:55.934Z,66.21
2022-08-26T19:43:24.062Z,66.54
2022-08-26T19:45:52.887Z,65.90
2022-08-26T19:48:21.162Z,66.34
2022-08-26T19:50:49.476Z,67.17
2022-08-26T19:53:17.438Z,66.92
2022-08-26T19:55:47.216Z,67.07
2022-08-26T19:58:15.485Z,64.99
2022-08-26T20:00:43.629Z,65.13
2022-08-26T20:03:14.923Z,65.34
2022-08-26T20:05:44.271Z,65.36
2022-08-26T20:08:22.126Z,66.20
2022-08-26T20:10:53.051Z,65.46
2022-08-26T20:13:21.857Z,66.08
2022-08-26T20:15:50.198Z,66.13
2022-08-26T20:18:35.454Z,65.81
2022-08-26T20:21:21.159Z,65.77
2022-08-26T20:23:49.082Z,66.88
2022-08-26T20:26:18.525Z,66.45
2022-08-26T20:28:46.482Z,66.06
2022-08-26T20:31:16.597Z,67.08
2022-08-26T20:33:46.030Z,66.38
2022-08-26T20:36:15.283Z,66.24
2022-08-26T20:38:43.418Z,67.15
2022-08-26T20:41:11.671Z,67.38
2022-08-26T20:43:42.670Z,67.46
2022-08-26T20:48:46.016Z,67.29
2022-08-26T20:51:14.338Z,67.62
2022-08-26T20:53:42.649Z,67.25
2022-08-26T20:56:12.612Z,67.17
2022-08-26T20:58:42.274Z,67.67
2022-08-26T21:01:19.243Z,66.72
2022-08-26T21:03:47.858Z,67.13
2022-08-26T21:06:15.906Z,66.75
2022-08-26T21:08:44.919Z,67.26
2022-08-26T21:11:13.372Z,66.73
2022-08-26T21:14:03.868Z,67.01
2022-08-26T21:16:31.834Z,66.63
2022-08-26T21:19:00.334Z,67.78
2022-08-26T21:21:29.124Z,68.64
2022-08-26T21:23:57.390Z,68.36
2022-08-26T21:26:25.982Z,67.70
2022-08-26T21:28:55.920Z,67.85
2022-08-26T21:31:25.895Z,69.03
2022-08-26T21:33:53.998Z,69.58
2022-08-26T21:36:22.386Z,69.87
2022-08-26T21:38:50.355Z,70.29
2022-08-26T21:41:20.833Z,70.45
2022-08-26T21:43:50.087Z,70.55
2022-08-26T21:46:25.136Z,70.41
2022-08-26T21:48:56.681Z,70.12
2022-08-26T21:51:27.380Z,70.55
2022-08-26T21:53:56.581Z,70.62
2022-08-26T21:56:26.929Z,71.23
2022-08-26T21:58:56.045Z,70.73
2022-08-26T22:01:28.458Z,70.52
2022-08-26T22:03:56.550Z,71.08
2022-08-26T22:06:27.744Z,71.18
2022-08-26T22:08:56.496Z,71.08
2022-08-26T22:11:25.308Z,71.29
2022-08-26T22:13:53.162Z,71.77
2022-08-26T22:16:21.042Z,69.95
2022-08-26T22:18:51.126Z,70.55
2022-08-26T22:21:23.692Z,71.09
2022-08-26T22:23:52.012Z,70.68
2022-08-26T22:26:30.314Z,72.40
2022-08-26T22:29:00.421Z,71.46
2022-08-26T22:31:37.701Z,69.92
2022-08-26T22:34:09.806Z,69.97
2022-08-26T22:36:43.021Z,71.17
2022-08-26T22:39:13.551Z,70.58
2022-08-26T22:41:42.056Z,70.78
2022-08-26T22:44:10.540Z,69.55
2022-08-26T22:46:38.674Z,70.92
2022-08-26T22:49:08.614Z,71.74
2022-08-26T22:51:36.767Z,71.49
2022-08-26T22:54:05.706Z,72.04
2022-08-26T22:56:33.798Z,72.97
2022-08-26T22:59:04.177Z,73.59
2022-08-26T23:01:35.617Z,73.33
2022-08-26T23:04:04.806Z,73.22
2022-08-26T23:06:36.252Z,73.91
2022-08-26T23:09:05.473Z,74.21
2022-08-26T23:11:33.457Z,74.23
2022-08-26T23:14:06.255Z,73.02
2022-08-26T23:16:41.462Z,73.03
2022-08-26T23:19:10.425Z,72.33
2022-08-26T23:21:40.514Z,75.19
2022-08-26T23:24:09.883Z,74.16
2022-08-26T23:26:38.759Z,75.83
2022-08-26T23:29:07.928Z,77.09
2022-08-26T23:31:37.489Z,79.99
2022-08-26T23:34:23.256Z,80.87
2022-08-26T23:36:53.859Z,82.23
2022-08-26T23:39:22.018Z,82.16
2022-08-26T23:41:49.907Z,83.60
2022-08-26T23:44:17.929Z,83.65
2022-08-26T23:46:45.879Z,83.54
2022-08-26T23:49:13.807Z,82.78
2022-08-26T23:51:59.190Z,83.75
2022-08-26T23:54:28.600Z,85.09
2022-08-26T23:56:56.878Z,84.57
2022-08-26T23:59:24.897Z,84.87
